Time;durP1;ratioP1;P1;durP2;ratioP2;P2;SDS_P1;SDS_P2;PMS_P1;PMS_P2;Temp;Humidity;BMP_temperature;BMP_pressure;BME280_temperature;BME280_humidity;BME280_pressure;Samples;Min_cycle;Max_cycle;Signal;HPM_P1;HPM_P2
2023/12/02 00:01:28;;;;;;;23.63;17.25;;;-0.30;99.90;;;;;;5103411;27;20040;-68
2023/12/02 00:03:54;;;;;;;21.88;16.48;;;-0.30;99.90;;;;;;5102946;27;20031;-69
2023/12/02 00:06:20;;;;;;;21.48;16.95;;;-0.40;99.90;;;;;;5099461;28;20405;-69
2023/12/02 00:08:45;;;;;;;22.38;16.63;;;-0.30;99.90;;;;;;5089085;28;20044;-69
2023/12/02 00:11:11;;;;;;;21.15;16.27;;;-0.40;99.90;;;;;;5102745;28;20380;-69
2023/12/02 00:13:37;;;;;;;22.58;16.58;;;-0.40;99.90;;;;;;5106564;27;20054;-69
2023/12/02 00:16:04;;;;;;;22.90;17.80;;;-0.30;99.90;;;;;;5102498;27;20473;-69
2023/12/02 00:18:29;;;;;;;22.52;16.48;;;-0.30;99.90;;;;;;5097902;27;20047;-69
2023/12/02 00:20:55;;;;;;;23.27;16.48;;;-0.40;99.90;;;;;;5096663;28;20032;-68
2023/12/02 00:23:20;;;;;;;24.48;17.70;;;-0.40;99.90;;;;;;5102882;27;20134;-68
2023/12/02 00:25:46;;;;;;;23.02;16.77;;;-0.30;99.90;;;;;;5097004;28;20487;-69
2023/12/02 00:28:11;;;;;;;22.08;17.20;;;-0.40;99.90;;;;;;5082145;28;20040;-69
2023/12/02 00:30:37;;;;;;;23.15;17.90;;;-0.30;99.90;;;;;;5099158;27;20502;-69
2023/12/02 00:33:03;;;;;;;23.95;19.15;;;-0.30;99.90;;;;;;5099246;28;20058;-69
2023/12/02 00:35:28;;;;;;;23.50;17.75;;;-0.30;99.90;;;;;;5132271;27;21468;-69
2023/12/02 00:37:54;;;;;;;23.40;17.38;;;-0.30;99.90;;;;;;5100731;28;20144;-69
2023/12/02 00:40:20;;;;;;;23.90;17.75;;;-0.20;99.90;;;;;;5101252;28;20039;-69
2023/12/02 00:42:45;;;;;;;23.15;17.33;;;-0.30;99.90;;;;;;5101404;28;20047;-69
2023/12/02 00:45:11;;;;;;;24.77;18.95;;;-0.30;99.90;;;;;;5102755;28;20031;-69
2023/12/02 00:47:36;;;;;;;26.58;17.60;;;-0.30;99.90;;;;;;5102254;27;20089;-68
2023/12/02 00:50:03;;;;;;;25.83;18.02;;;-0.30;99.90;;;;;;5101810;27;20047;-68
2023/12/02 00:52:28;;;;;;;26.42;18.52;;;-0.30;99.90;;;;;;5103335;27;20499;-68
2023/12/02 00:54:54;;;;;;;27.63;18.95;;;-0.30;99.90;;;;;;5101810;28;20043;-68
2023/12/02 00:57:19;;;;;;;23.67;17.85;;;-0.30;99.90;;;;;;5098576;28;20076;-68
2023/12/02 00:59:45;;;;;;;23.73;18.30;;;-0.30;99.90;;;;;;5085986;28;20051;-68
2023/12/02 01:02:11;;;;;;;22.42;16.58;;;-0.30;99.90;;;;;;5095094;27;20043;-68
2023/12/02 01:04:36;;;;;;;22.80;16.90;;;-0.30;99.90;;;;;;5097418;27;20122;-68
2023/12/02 01:07:02;;;;;;;23.40;18.05;;;-1.20;99.90;;;;;;5098282;28;20478;-69
2023/12/02 01:09:28;;;;;;;21.77;16.67;;;-0.20;99.90;;;;;;5097511;27;20040;-69
2023/12/02 01:11:53;;;;;;;21.90;16.33;;;-0.20;99.90;;;;;;5102281;27;20055;-69
2023/12/02 01:14:19;;;;;;;24.80;16.77;;;-0.20;99.90;;;;;;5098160;28;20478;-69
2023/12/02 01:16:44;;;;;;;24.45;16.63;;;-0.30;99.90;;;;;;5099532;28;20051;-69
2023/12/02 01:19:10;;;;;;;22.95;16.75;;;-0.30;99.90;;;;;;5100754;27;20494;-69
2023/12/02 01:21:36;;;;;;;22.98;16.70;;;-0.30;99.90;;;;;;5102545;27;20039;-68
2023/12/02 01:24:01;;;;;;;22.10;16.67;;;-0.30;99.90;;;;;;5101670;27;20085;-68
2023/12/02 01:26:27;;;;;;;23.33;17.58;;;-0.30;99.90;;;;;;5099190;27;20067;-69
2023/12/02 01:28:52;;;;;;;22.05;16.92;;;-0.30;99.90;;;;;;5091974;28;20464;-69
2023/12/02 01:31:18;;;;;;;22.48;16.80;;;-0.30;99.90;;;;;;5097145;27;20514;-69
2023/12/02 01:33:44;;;;;;;23.30;17.20;;;-0.30;99.90;;;;;;5097917;28;20046;-69
2023/12/02 01:36:13;;;;;;;23.83;17.35;;;-0.30;99.90;;;;;;5101390;28;20090;-69
2023/12/02 01:38:38;;;;;;;21.75;16.70;;;-0.30;99.90;;;;;;5129396;27;20043;-69
2023/12/02 01:41:04;;;;;;;22.48;16.40;;;-0.20;99.90;;;;;;5103614;27;20059;-68
2023/12/02 01:43:30;;;;;;;23.80;16.30;;;-0.20;99.90;;;;;;5098292;28;20049;-68
2023/12/02 01:45:56;;;;;;;21.75;17.48;;;-0.30;99.90;;;;;;5099339;28;20459;-68
2023/12/02 01:48:24;;;;;;;22.63;16.20;;;-0.30;99.90;;;;;;5097261;28;20036;-68
2023/12/02 01:50:50;;;;;;;20.38;16.02;;;-0.30;99.90;;;;;;5100160;28;20555;-69
2023/12/02 01:53:16;;;;;;;21.27;16.23;;;0.00;99.90;;;;;;5126524;27;20131;-68
2023/12/02 01:55:43;;;;;;;22.48;16.15;;;-0.30;99.90;;;;;;5101571;28;20139;-68
2023/12/02 01:58:09;;;;;;;22.67;17.52;;;-0.20;99.90;;;;;;5098895;27;20416;-68
2023/12/02 02:00:34;;;;;;;22.83;16.98;;;-0.20;99.90;;;;;;5114525;27;20036;-69
2023/12/02 02:03:00;;;;;;;20.15;15.05;;;-0.20;99.90;;;;;;5100966;28;20066;-69
2023/12/02 02:05:26;;;;;;;22.67;17.15;;;-0.20;99.90;;;;;;5100041;28;20040;-69
2023/12/02 02:07:52;;;;;;;21.35;16.50;;;-0.20;99.90;;;;;;5097530;28;20086;-68
2023/12/02 02:10:20;;;;;;;21.55;17.08;;;-0.30;99.90;;;;;;5098626;28;20079;-68
2023/12/02 02:12:46;;;;;;;23.73;17.33;;;-0.30;99.90;;;;;;5098517;28;20394;-68
2023/12/02 02:15:12;;;;;;;22.55;17.10;;;-0.20;99.90;;;;;;5098331;28;20050;-68
2023/12/02 02:17:37;;;;;;;23.15;16.85;;;-0.20;99.90;;;;;;5099527;28;20036;-69
2023/12/02 02:20:04;;;;;;;22.13;16.50;;;-0.20;99.90;;;;;;5097553;28;20032;-68
2023/12/02 02:22:29;;;;;;;22.05;16.80;;;-0.20;99.90;;;;;;5116354;27;20038;-68
2023/12/02 02:24:55;;;;;;;21.27;16.15;;;-0.20;99.90;;;;;;5100124;28;20473;-68
2023/12/02 02:27:21;;;;;;;22.63;15.45;;;-0.20;99.90;;;;;;5102637;28;20043;-68
2023/12/02 02:29:46;;;;;;;21.92;16.77;;;-0.30;99.90;;;;;;5098857;28;20139;-69
2023/12/02 02:32:12;;;;;;;24.75;16.92;;;-0.20;99.90;;;;;;5098260;28;20046;-68
2023/12/02 02:34:43;;;;;;;21.85;16.10;;;-0.30;99.90;;;;;;5093213;28;20075;-68
2023/12/02 02:37:09;;;;;;;19.67;16.38;;;-0.20;99.90;;;;;;5093437;28;20044;-69
2023/12/02 02:39:35;;;;;;;22.20;17.02;;;-0.30;99.90;;;;;;5092853;28;20051;-69
2023/12/02 02:42:06;;;;;;;22.35;16.45;;;-0.30;99.90;;;;;;5125050;27;20478;-69
2023/12/02 02:44:33;;;;;;;20.73;15.45;;;-0.30;99.90;;;;;;5091494;28;20371;-69
2023/12/02 02:46:58;;;;;;;20.70;15.88;;;-0.30;99.90;;;;;;5102531;28;20043;-68
2023/12/02 02:49:24;;;;;;;22.15;16.20;;;-0.30;99.90;;;;;;5100749;28;20035;-68
2023/12/02 02:51:49;;;;;;;21.05;15.82;;;-0.30;99.90;;;;;;5095161;28;20044;-69
2023/12/02 02:54:15;;;;;;;22.38;16.95;;;-0.30;99.90;;;;;;5098980;28;20139;-69
2023/12/02 02:56:43;;;;;;;23.33;16.50;;;-0.30;99.90;;;;;;5093870;28;20032;-69
2023/12/02 02:59:08;;;;;;;21.10;15.68;;;-0.30;99.90;;;;;;5093307;28;20113;-69
2023/12/02 03:01:34;;;;;;;22.25;16.27;;;-0.30;99.90;;;;;;5090435;28;20138;-69
2023/12/02 03:03:59;;;;;;;23.52;15.75;;;-0.30;99.90;;;;;;5091701;28;21504;-69
2023/12/02 03:06:25;;;;;;;19.83;15.43;;;-0.30;99.90;;;;;;5091008;28;20040;-69
2023/12/02 03:08:51;;;;;;;22.65;16.98;;;-0.30;99.90;;;;;;5093041;28;20524;-68
2023/12/02 03:11:17;;;;;;;22.73;17.10;;;-0.30;99.90;;;;;;5090526;28;20040;-69
2023/12/02 03:13:42;;;;;;;21.35;16.38;;;-0.30;99.90;;;;;;5093178;28;20408;-69
2023/12/02 03:16:08;;;;;;;20.98;16.70;;;-0.30;99.90;;;;;;5090766;28;20050;-69
2023/12/02 03:18:34;;;;;;;19.98;15.60;;;-0.20;99.90;;;;;;5092092;28;20051;-68
2023/12/02 03:20:59;;;;;;;23.85;18.30;;;-0.30;99.90;;;;;;5123117;27;20044;-68
2023/12/02 03:23:25;;;;;;;20.42;15.93;;;-0.30;99.90;;;;;;5090036;28;20562;-68
2023/12/02 03:25:51;;;;;;;22.70;16.67;;;-0.30;99.90;;;;;;5075483;28;20074;-68
2023/12/02 03:28:18;;;;;;;23.90;17.15;;;-0.30;99.90;;;;;;5093025;28;20040;-69
2023/12/02 03:30:43;;;;;;;21.27;15.93;;;-0.30;99.90;;;;;;5093568;27;20131;-68
2023/12/02 03:33:09;;;;;;;21.83;16.42;;;-0.30;99.90;;;;;;5127020;27;20043;-68
2023/12/02 03:35:35;;;;;;;25.52;17.27;;;-0.30;99.90;;;;;;5077563;27;20096;-69
2023/12/02 03:38:01;;;;;;;21.05;16.70;;;-0.30;99.90;;;;;;5096928;27;21437;-69
2023/12/02 03:40:27;;;;;;;25.65;17.85;;;-0.30;99.90;;;;;;5097329;27;20667;-68
2023/12/02 03:42:52;;;;;;;19.70;16.20;;;-0.40;99.90;;;;;;5095176;27;20063;-69
2023/12/02 03:45:18;;;;;;;20.98;15.88;;;-0.40;99.90;;;;;;5080012;28;20195;-69
2023/12/02 03:47:43;;;;;;;22.13;16.60;;;-0.40;99.90;;;;;;5095100;27;20546;-68
2023/12/02 03:50:10;;;;;;;22.27;16.38;;;-0.40;99.90;;;;;;5093624;27;20043;-68
2023/12/02 03:52:36;;;;;;;25.48;17.58;;;-0.40;99.90;;;;;;5099263;27;20036;-68
2023/12/02 03:55:02;;;;;;;24.35;18.05;;;-0.40;99.90;;;;;;5101670;27;20036;-68
2023/12/02 03:57:27;;;;;;;23.70;16.85;;;-0.40;99.90;;;;;;5100975;27;20036;-68
2023/12/02 03:59:53;;;;;;;22.55;16.77;;;-0.40;99.90;;;;;;5097077;27;21288;-69
2023/12/02 04:02:19;;;;;;;22.95;16.40;;;-0.40;99.90;;;;;;5110785;27;20035;-69
2023/12/02 04:04:44;;;;;;;27.17;18.17;;;-0.40;99.90;;;;;;5095127;28;20406;-69
2023/12/02 04:07:10;;;;;;;25.40;18.20;;;-0.40;99.90;;;;;;5097606;27;20121;-69
2023/12/02 04:09:35;;;;;;;21.63;16.13;;;-0.40;99.90;;;;;;5097694;27;20991;-68
2023/12/02 04:12:01;;;;;;;21.88;16.00;;;-0.40;99.90;;;;;;5096469;28;20129;-68
2023/12/02 04:14:27;;;;;;;23.38;17.60;;;-0.40;99.90;;;;;;5095764;28;20039;-69
2023/12/02 04:16:52;;;;;;;24.73;17.38;;;-0.40;99.90;;;;;;5094465;28;20473;-69
2023/12/02 04:19:18;;;;;;;21.95;16.67;;;-0.50;99.90;;;;;;5093109;28;20040;-69
2023/12/02 04:21:45;;;;;;;24.58;18.40;;;-0.50;99.90;;;;;;5092997;28;20059;-69
2023/12/02 04:24:11;;;;;;;24.15;17.90;;;-0.40;99.90;;;;;;5093552;27;20608;-69
2023/12/02 04:26:37;;;;;;;23.73;17.27;;;-0.40;99.90;;;;;;5094320;28;20031;-69
2023/12/02 04:29:03;;;;;;;26.60;18.25;;;-0.50;99.90;;;;;;5096117;27;20051;-69
2023/12/02 04:31:30;;;;;;;24.98;18.50;;;-0.40;99.90;;;;;;5077293;28;20039;-69
2023/12/02 04:33:56;;;;;;;25.58;18.67;;;-0.50;99.90;;;;;;5097008;28;20111;-69
2023/12/02 04:36:21;;;;;;;28.17;18.20;;;-0.40;99.90;;;;;;5092155;28;20047;-69
2023/12/02 04:38:47;;;;;;;24.60;17.58;;;-0.40;99.90;;;;;;5095507;28;20115;-69
2023/12/02 04:41:12;;;;;;;24.00;18.33;;;-0.50;99.90;;;;;;5090154;28;20451;-69
2023/12/02 04:43:38;;;;;;;25.17;18.58;;;-0.40;99.90;;;;;;5095977;28;20036;-69
2023/12/02 04:46:06;;;;;;;25.52;18.45;;;-0.40;99.90;;;;;;5093787;28;20044;-69
2023/12/02 04:48:32;;;;;;;26.55;18.23;;;-0.40;99.90;;;;;;5096711;27;20130;-69
2023/12/02 04:50:58;;;;;;;26.50;19.08;;;-0.50;99.90;;;;;;5091232;28;20035;-69
2023/12/02 04:53:23;;;;;;;24.70;18.23;;;-0.40;99.90;;;;;;5096187;27;20478;-68
2023/12/02 04:55:52;;;;;;;25.45;18.17;;;-0.40;99.90;;;;;;5094022;27;20040;-68
2023/12/02 04:58:18;;;;;;;27.60;19.90;;;-0.40;99.90;;;;;;5097326;28;20170;-68
2023/12/02 05:00:44;;;;;;;28.70;18.75;;;-0.40;99.90;;;;;;5092658;27;20055;-69
2023/12/02 05:03:10;;;;;;;26.00;19.17;;;-0.50;99.90;;;;;;5097674;28;20048;-69
2023/12/02 05:05:36;;;;;;;26.38;18.88;;;-0.40;99.90;;;;;;5095339;27;20039;-69
2023/12/02 05:08:02;;;;;;;24.00;18.10;;;-0.50;99.90;;;;;;5091357;28;20060;-69
2023/12/02 05:10:27;;;;;;;24.52;18.38;;;-0.50;99.90;;;;;;5096888;28;20414;-69
2023/12/02 05:12:53;;;;;;;24.65;18.85;;;-0.50;99.90;;;;;;5096537;27;20410;-69
2023/12/02 05:15:19;;;;;;;23.48;18.33;;;-0.50;99.90;;;;;;5099672;28;20495;-69
2023/12/02 05:17:46;;;;;;;25.02;17.63;;;-0.50;99.90;;;;;;5098877;28;20126;-69
2023/12/02 05:20:13;;;;;;;24.90;18.42;;;-0.50;99.90;;;;;;5097574;27;20039;-69
2023/12/02 05:22:41;;;;;;;25.85;18.55;;;-0.50;99.90;;;;;;5093771;28;20473;-68
2023/12/02 05:25:07;;;;;;;26.98;18.85;;;-0.50;99.90;;;;;;5093692;28;20043;-69
2023/12/02 05:27:33;;;;;;;24.08;18.33;;;-0.50;99.90;;;;;;5102518;27;20065;-69
2023/12/02 05:29:59;;;;;;;27.35;19.80;;;-0.50;99.90;;;;;;5098028;28;20065;-69
2023/12/02 05:32:25;;;;;;;28.73;19.45;;;-0.50;99.90;;;;;;5100176;28;20047;-69
2023/12/02 05:34:51;;;;;;;24.15;19.00;;;-0.50;99.90;;;;;;5100358;27;20096;-69
2023/12/02 05:37:16;;;;;;;27.77;20.38;;;-0.50;99.90;;;;;;5101613;28;20064;-68
2023/12/02 05:39:42;;;;;;;28.58;19.30;;;-0.50;99.90;;;;;;5100914;28;20113;-68
2023/12/02 05:42:08;;;;;;;27.08;19.88;;;-0.50;99.90;;;;;;5102992;28;20040;-69
2023/12/02 05:44:33;;;;;;;26.00;18.95;;;-0.50;99.90;;;;;;5100128;27;20046;-69
2023/12/02 05:46:59;;;;;;;27.58;20.17;;;-0.50;99.90;;;;;;5103530;27;20036;-68
2023/12/02 05:49:24;;;;;;;26.42;20.08;;;-0.40;99.90;;;;;;5098820;28;20726;-68
2023/12/02 05:51:50;;;;;;;27.08;19.60;;;-0.50;99.90;;;;;;5099090;28;20039;-68
2023/12/02 05:54:16;;;;;;;29.08;20.27;;;-0.50;99.90;;;;;;5101596;28;20039;-68
2023/12/02 05:56:41;;;;;;;24.27;18.40;;;-0.50;99.90;;;;;;5097804;28;20043;-68
2023/12/02 05:59:07;;;;;;;29.88;19.02;;;-0.50;99.90;;;;;;5075244;27;20055;-68
2023/12/02 06:01:32;;;;;;;28.60;19.15;;;-0.50;99.90;;;;;;5092564;27;20602;-68
2023/12/02 06:03:58;;;;;;;28.85;21.50;;;-0.50;99.90;;;;;;5092220;28;20047;-69
2023/12/02 06:06:24;;;;;;;29.58;20.17;;;-0.50;99.90;;;;;;5096326;28;20542;-68
2023/12/02 06:08:49;;;;;;;26.13;19.58;;;-0.50;99.90;;;;;;5093806;28;20063;-68
2023/12/02 06:11:15;;;;;;;28.55;19.80;;;-0.50;99.90;;;;;;5104162;28;20035;-68
2023/12/02 06:13:40;;;;;;;27.05;19.08;;;-0.50;99.90;;;;;;5099522;27;20035;-68
2023/12/02 06:16:06;;;;;;;29.33;20.70;;;-0.50;99.90;;;;;;5097130;28;20134;-68
2023/12/02 06:18:32;;;;;;;28.48;19.88;;;-0.50;99.90;;;;;;5101392;28;20028;-68
2023/12/02 06:20:58;;;;;;;30.00;20.38;;;-0.50;99.90;;;;;;5095980;28;20032;-68
2023/12/02 06:23:24;;;;;;;28.13;20.33;;;-0.60;99.90;;;;;;5126285;27;20712;-68
2023/12/02 06:25:50;;;;;;;26.20;18.92;;;-0.60;99.90;;;;;;5097185;28;20043;-68
2023/12/02 06:28:15;;;;;;;28.08;20.35;;;-0.60;99.90;;;;;;5099140;28;20036;-68
2023/12/02 06:30:42;;;;;;;32.67;21.73;;;-0.60;99.90;;;;;;5098681;28;20112;-68
2023/12/02 06:33:08;;;;;;;29.00;20.45;;;-0.60;99.90;;;;;;5098102;28;20610;-68
2023/12/02 06:35:34;;;;;;;27.27;19.38;;;-0.60;99.90;;;;;;5084872;28;20043;-69
2023/12/02 06:37:59;;;;;;;33.38;21.25;;;-0.60;99.90;;;;;;5097218;28;20687;-68
2023/12/02 06:40:25;;;;;;;31.27;20.92;;;-0.60;99.90;;;;;;5095121;28;20038;-69
2023/12/02 06:42:51;;;;;;;31.25;20.52;;;-0.60;99.90;;;;;;5095711;28;20489;-68
2023/12/02 06:45:17;;;;;;;32.13;20.70;;;-0.60;99.90;;;;;;5093534;28;20050;-68
2023/12/02 06:47:42;;;;;;;31.88;20.63;;;-0.60;99.90;;;;;;5096922;28;20093;-68
2023/12/02 06:50:09;;;;;;;28.35;18.88;;;-0.60;99.90;;;;;;5094022;28;20032;-68
2023/12/02 06:52:35;;;;;;;30.50;19.00;;;-0.60;99.90;;;;;;5097033;28;20046;-68
2023/12/02 06:55:01;;;;;;;29.00;20.38;;;-0.70;99.90;;;;;;5098172;28;20051;-68
2023/12/02 06:57:26;;;;;;;33.20;21.30;;;-0.60;99.90;;;;;;5096139;28;20082;-68
2023/12/02 06:59:52;;;;;;;29.88;19.90;;;-0.60;99.90;;;;;;5095100;28;20056;-68
2023/12/02 07:02:18;;;;;;;34.38;23.60;;;-0.60;99.90;;;;;;5090451;28;20036;-68
2023/12/02 07:04:45;;;;;;;30.48;20.35;;;-0.20;99.90;;;;;;5090130;28;20527;-68
2023/12/02 07:07:11;;;;;;;29.58;19.17;;;-0.60;99.90;;;;;;5094176;28;20044;-69
2023/12/02 07:09:37;;;;;;;30.52;20.27;;;-0.60;99.90;;;;;;5094973;28;20047;-69
2023/12/02 07:12:03;;;;;;;30.15;19.55;;;-0.60;99.90;;;;;;5099112;27;20046;-68
2023/12/02 07:14:29;;;;;;;26.33;19.17;;;-0.60;99.90;;;;;;5098727;28;20044;-68
2023/12/02 07:16:54;;;;;;;30.65;20.92;;;-0.70;99.90;;;;;;5099426;28;20051;-68
2023/12/02 07:19:20;;;;;;;30.73;20.35;;;-0.60;99.90;;;;;;5097697;28;20066;-68
2023/12/02 07:21:46;;;;;;;31.38;19.85;;;-0.60;99.90;;;;;;5097126;27;20063;-68
2023/12/02 07:24:11;;;;;;;33.70;21.48;;;-0.70;99.90;;;;;;5098602;27;20036;-68
2023/12/02 07:26:37;;;;;;;30.05;20.13;;;-0.70;99.90;;;;;;5097023;28;20056;-68
2023/12/02 07:29:03;;;;;;;32.05;20.92;;;-0.70;99.90;;;;;;5098731;28;20035;-68
2023/12/02 07:31:29;;;;;;;30.00;21.02;;;-0.70;99.90;;;;;;5102488;28;20072;-68
2023/12/02 07:33:54;;;;;;;29.75;21.02;;;-0.70;99.90;;;;;;5100387;28;20105;-68
2023/12/02 07:36:20;;;;;;;32.25;20.58;;;-0.70;99.90;;;;;;5086180;28;20126;-68
2023/12/02 07:38:46;;;;;;;31.83;21.50;;;-0.70;99.90;;;;;;5099511;28;20056;-68
2023/12/02 07:41:12;;;;;;;31.77;21.33;;;-0.70;99.90;;;;;;5101330;27;20043;-68
2023/12/02 07:43:37;;;;;;;30.13;20.67;;;-0.60;99.90;;;;;;5104964;28;20454;-68
2023/12/02 07:46:03;;;;;;;35.33;20.95;;;-0.60;99.90;;;;;;5101758;28;20110;-68
2023/12/02 07:48:29;;;;;;;33.58;20.55;;;-0.70;99.90;;;;;;5106070;27;20034;-68
2023/12/02 07:50:55;;;;;;;30.50;21.08;;;-0.60;99.90;;;;;;5101759;28;20378;-68
2023/12/02 07:53:20;;;;;;;32.72;20.25;;;-0.70;99.90;;;;;;5104495;27;20101;-68
2023/12/02 07:55:46;;;;;;;29.35;20.40;;;-0.60;99.90;;;;;;5095265;27;20039;-68
2023/12/02 07:58:12;;;;;;;34.40;20.60;;;-0.60;99.90;;;;;;5097785;28;20039;-68
2023/12/02 08:00:37;;;;;;;32.13;20.92;;;-0.60;99.90;;;;;;5095554;28;20049;-68
2023/12/02 08:03:03;;;;;;;32.20;21.17;;;-0.50;99.90;;;;;;5093548;28;20051;-68
2023/12/02 08:05:29;;;;;;;31.15;20.25;;;-0.60;99.90;;;;;;5094430;28;20136;-68
2023/12/02 08:07:55;;;;;;;34.60;21.95;;;-0.60;99.90;;;;;;5098682;27;20092;-68
2023/12/02 08:10:21;;;;;;;30.80;20.58;;;-0.60;99.90;;;;;;5087565;28;20478;-68
2023/12/02 08:12:47;;;;;;;35.00;22.25;;;-0.60;99.90;;;;;;5099498;27;20051;-68
2023/12/02 08:15:13;;;;;;;31.65;21.92;;;-0.50;99.90;;;;;;5101612;27;20036;-68
2023/12/02 08:17:39;;;;;;;30.02;20.90;;;-0.50;99.90;;;;;;5097866;28;20040;-68
2023/12/02 08:20:05;;;;;;;32.60;21.27;;;-0.50;99.90;;;;;;5103871;27;20131;-68
2023/12/02 08:22:31;;;;;;;34.15;22.05;;;-0.50;99.90;;;;;;5103747;27;20043;-68
2023/12/02 08:24:57;;;;;;;33.90;22.42;;;0.30;99.90;;;;;;5106769;27;20436;-68
2023/12/02 08:27:23;;;;;;;30.85;21.42;;;-0.40;99.90;;;;;;5100878;28;20099;-68
2023/12/02 08:29:49;;;;;;;36.53;23.20;;;-0.50;99.90;;;;;;5099474;27;20051;-68
2023/12/02 08:32:14;;;;;;;31.85;21.52;;;-0.40;99.90;;;;;;5101202;27;20043;-68
2023/12/02 08:34:40;;;;;;;31.45;20.88;;;-0.40;99.90;;;;;;5100235;27;20048;-68
2023/12/02 08:37:06;;;;;;;35.75;22.35;;;-0.40;99.90;;;;;;5101257;28;20070;-68
2023/12/02 08:39:33;;;;;;;34.63;22.52;;;-0.30;99.90;;;;;;5100968;27;20046;-68
2023/12/02 08:41:58;;;;;;;30.90;21.75;;;-0.30;99.90;;;;;;5100760;28;20051;-68
2023/12/02 08:44:24;;;;;;;32.92;21.65;;;-0.30;99.90;;;;;;5102923;28;20027;-68
2023/12/02 08:46:52;;;;;;;36.13;22.83;;;-0.20;99.90;;;;;;5103939;28;20058;-68
2023/12/02 08:49:18;;;;;;;34.30;22.00;;;-0.20;99.90;;;;;;5102062;28;20703;-68
2023/12/02 08:51:44;;;;;;;33.35;20.52;;;-0.20;99.90;;;;;;5102530;27;20070;-68
2023/12/02 08:54:09;;;;;;;36.45;22.02;;;-0.10;99.90;;;;;;5105403;27;20079;-68
2023/12/02 08:56:35;;;;;;;33.10;21.33;;;-0.40;99.90;;;;;;5103313;28;20393;-68
2023/12/02 08:59:01;;;;;;;34.80;22.55;;;-0.10;99.90;;;;;;5103887;27;20086;-68
2023/12/02 09:01:27;;;;;;;33.90;22.00;;;-0.10;99.90;;;;;;5103155;27;20105;-69
2023/12/02 09:03:53;;;;;;;33.38;22.08;;;-0.10;99.90;;;;;;5101931;27;20047;-69
2023/12/02 09:06:19;;;;;;;34.10;22.77;;;-0.10;99.90;;;;;;5098150;28;20040;-68
2023/12/02 09:08:45;;;;;;;32.85;21.25;;;0.00;99.90;;;;;;5102918;28;20034;-68
2023/12/02 09:11:11;;;;;;;38.22;23.92;;;0.00;99.90;;;;;;5103109;27;20089;-68
2023/12/02 09:13:39;;;;;;;36.17;21.95;;;0.00;99.90;;;;;;5102404;28;20442;-68
2023/12/02 09:16:11;;;;;;;33.90;22.00;;;0.10;99.90;;;;;;5099668;28;20043;-68
2023/12/02 09:18:37;;;;;;;34.53;23.38;;;0.20;99.90;;;;;;5099540;27;20087;-69
2023/12/02 09:21:20;;;;;;;36.08;23.40;;;0.20;99.90;;;;;;5100578;27;20075;-69
2023/12/02 09:23:50;;;;;;;37.58;22.85;;;0.20;99.90;;;;;;5097927;28;20051;-68
2023/12/02 09:26:33;;;;;;;34.38;22.33;;;0.20;99.90;;;;;;5099173;28;20051;-68
2023/12/02 09:28:59;;;;;;;36.72;22.80;;;0.20;99.90;;;;;;5097967;28;20055;-68
2023/12/02 09:31:26;;;;;;;35.00;23.10;;;0.30;99.90;;;;;;5097969;28;20442;-68
2023/12/02 09:33:59;;;;;;;37.70;23.33;;;0.30;99.90;;;;;;5099870;28;20044;-68
2023/12/02 09:36:39;;;;;;;31.30;21.73;;;0.40;99.90;;;;;;5100053;28;20081;-68
2023/12/02 09:39:16;;;;;;;34.03;22.58;;;0.30;99.90;;;;;;5099121;27;20124;-68
2023/12/02 09:41:54;;;;;;;33.55;22.45;;;0.40;99.90;;;;;;5102783;28;20047;-68
2023/12/02 09:44:41;;;;;;;33.50;21.83;;;0.50;99.90;;;;;;5100937;28;20118;-68
2023/12/02 09:47:20;;;;;;;33.28;22.65;;;0.50;99.90;;;;;;5129100;27;20382;-68
2023/12/02 09:50:11;;;;;;;31.85;22.75;;;0.50;99.90;;;;;;5100155;28;20036;-68
2023/12/02 09:53:05;;;;;;;29.58;19.85;;;0.70;99.90;;;;;;5098795;28;20086;-68
2023/12/02 09:55:43;;;;;;;33.58;22.40;;;0.80;99.90;;;;;;5103699;28;20574;-68
2023/12/02 09:58:21;;;;;;;35.28;23.48;;;0.80;99.90;;;;;;5099293;28;20047;-68
2023/12/02 10:00:58;;;;;;;32.35;22.38;;;1.00;99.90;;;;;;5119067;27;20069;-68
2023/12/02 10:04:00;;;;;;;36.00;22.88;;;1.30;99.90;;;;;;5099534;28;20047;-68
2023/12/02 10:06:47;;;;;;;32.42;21.50;;;1.20;99.90;;;;;;5101954;28;20032;-68
2023/12/02 10:09:25;;;;;;;32.88;22.00;;;1.30;99.90;;;;;;5100297;28;20122;-68
2023/12/02 10:12:05;;;;;;;29.52;21.80;;;1.40;99.90;;;;;;5100961;28;20052;-69
2023/12/02 10:14:34;;;;;;;31.67;21.90;;;1.50;99.90;;;;;;5099643;28;20075;-68
2023/12/02 10:17:02;;;;;;;30.20;22.20;;;1.60;99.90;;;;;;5099302;28;20044;-68
2023/12/02 10:19:51;;;;;;;29.85;20.42;;;1.70;99.90;;;;;;5101142;28;20058;-68
2023/12/02 10:22:19;;;;;;;29.52;21.10;;;1.80;99.90;;;;;;5103049;28;20122;-69
2023/12/02 10:25:02;;;;;;;27.63;20.67;;;1.90;99.90;;;;;;5103635;28;20040;-69
2023/12/02 10:27:30;;;;;;;30.50;21.17;;;2.00;99.90;;;;;;5102747;28;20058;-69
2023/12/02 10:30:02;;;;;;;29.90;21.17;;;2.00;99.90;;;;;;5106416;28;20102;-69
2023/12/02 10:32:36;;;;;;;28.92;21.40;;;2.00;99.90;;;;;;5102212;28;20168;-69
2023/12/02 10:35:18;;;;;;;28.95;20.95;;;2.10;99.90;;;;;;5099931;28;20088;-69
2023/12/02 10:37:44;;;;;;;30.45;20.25;;;2.10;99.90;;;;;;5104776;28;20481;-69
2023/12/02 10:40:13;;;;;;;29.63;20.02;;;2.00;99.90;;;;;;5106336;28;20672;-69
2023/12/02 10:43:02;;;;;;;28.27;20.63;;;2.10;99.90;;;;;;5103653;27;20506;-69
2023/12/02 10:45:30;;;;;;;30.98;20.92;;;2.10;99.90;;;;;;5103395;28;20362;-70
2023/12/02 10:47:58;;;;;;;26.83;20.40;;;2.10;99.90;;;;;;5103269;28;20040;-70
2023/12/02 10:50:25;;;;;;;28.75;20.58;;;2.20;99.90;;;;;;5108648;28;20099;-70
2023/12/02 10:53:12;;;;;;;27.40;20.42;;;2.20;99.90;;;;;;5133182;27;20035;-70
2023/12/02 10:55:45;;;;;;;26.98;20.15;;;2.20;99.90;;;;;;5105420;27;20546;-70
2023/12/02 10:58:12;;;;;;;25.73;19.50;;;2.30;99.90;;;;;;5103805;28;20031;-69
2023/12/02 11:00:42;;;;;;;28.05;20.98;;;2.40;99.90;;;;;;5087227;28;20040;-70
2023/12/02 11:03:36;;;;;;;28.80;21.23;;;2.40;99.90;;;;;;5106134;27;21631;-70
2023/12/02 11:06:14;;;;;;;27.05;19.33;;;2.50;99.90;;;;;;5105329;28;20090;-70
2023/12/02 11:08:48;;;;;;;26.08;19.15;;;2.50;99.90;;;;;;5106059;28;20051;-70
2023/12/02 11:11:32;;;;;;;27.88;20.42;;;2.50;99.90;;;;;;5103352;28;20059;-70
2023/12/02 11:14:01;;;;;;;28.63;19.00;;;2.50;99.90;;;;;;5105471;28;20047;-70
2023/12/02 11:16:36;;;;;;;28.02;19.50;;;2.50;99.90;;;;;;5101939;28;20072;-70
2023/12/02 11:19:26;;;;;;;27.23;19.80;;;2.60;99.90;;;;;;5090827;28;20039;-70
2023/12/02 11:22:31;;;;;;;25.63;19.13;;;2.80;99.90;;;;;;5088171;28;20493;-70
2023/12/02 11:25:26;;;;;;;25.67;18.63;;;2.90;99.90;;;;;;5104780;27;20501;-70
2023/12/02 11:28:25;;;;;;;23.90;18.20;;;3.00;99.90;;;;;;5102416;28;20093;-70
2023/12/02 11:31:41;;;;;;;21.55;17.00;;;3.20;99.90;;;;;;5105296;28;20039;-70
2023/12/02 11:34:37;;;;;;;23.77;17.77;;;3.30;99.90;;;;;;5062994;28;20047;-70
2023/12/02 11:37:21;;;;;;;25.97;17.87;;;3.30;99.90;;;;;;5102455;28;20122;-70
2023/12/02 11:39:55;;;;;;;24.38;17.73;;;3.40;99.90;;;;;;5104043;27;20402;-70
2023/12/02 11:42:29;;;;;;;24.55;17.10;;;3.40;99.90;;;;;;5104472;28;20067;-70
2023/12/02 11:45:17;;;;;;;24.08;17.35;;;3.40;99.90;;;;;;5091217;28;20040;-71
2023/12/02 11:48:02;;;;;;;23.02;16.73;;;3.30;99.90;;;;;;5108548;28;20050;-70
2023/12/02 11:50:46;;;;;;;20.80;16.87;;;3.30;99.90;;;;;;5104475;28;20591;-71
2023/12/02 11:53:52;;;;;;;22.30;16.45;;;3.30;99.90;;;;;;5101122;27;20106;-70
2023/12/02 11:56:22;;;;;;;20.35;16.00;;;3.30;99.90;;;;;;5103206;27;20119;-70
2023/12/02 11:58:51;;;;;;;24.45;16.50;;;3.30;99.90;;;;;;5104786;27;20040;-71
2023/12/02 12:01:29;;;;;;;22.63;17.38;;;3.30;99.90;;;;;;5100528;28;20062;-71
2023/12/02 12:04:03;;;;;;;22.75;16.65;;;3.20;99.90;;;;;;5102838;28;20042;-71
2023/12/02 12:06:48;;;;;;;20.80;15.98;;;3.20;99.90;;;;;;5105237;28;20097;-71
2023/12/02 12:09:44;;;;;;;21.83;15.95;;;3.20;99.90;;;;;;5104606;28;20640;-70
2023/12/02 12:12:11;;;;;;;20.83;15.48;;;3.20;99.90;;;;;;5118668;27;20039;-71
2023/12/02 12:14:37;;;;;;;19.90;15.50;;;3.20;99.90;;;;;;5103855;28;20519;-71
2023/12/02 12:17:04;;;;;;;22.83;15.77;;;3.20;99.90;;;;;;5103878;27;20050;-71
2023/12/02 12:19:29;;;;;;;22.30;15.13;;;3.20;99.90;;;;;;5101196;28;20560;-71
2023/12/02 12:21:55;;;;;;;18.10;14.05;;;3.10;99.90;;;;;;5100378;28;20115;-71
2023/12/02 12:24:21;;;;;;;19.50;14.48;;;3.10;99.90;;;;;;5103681;27;20398;-71
2023/12/02 12:26:47;;;;;;;19.55;14.50;;;3.10;99.90;;;;;;5132172;27;20043;-71
2023/12/02 12:29:12;;;;;;;24.27;15.20;;;3.10;99.90;;;;;;5102697;28;20043;-71
2023/12/02 12:31:39;;;;;;;21.30;15.00;;;3.10;99.90;;;;;;5100340;28;20039;-71
2023/12/02 12:34:13;;;;;;;19.30;14.35;;;3.10;99.90;;;;;;5102600;28;20489;-71
2023/12/02 12:36:41;;;;;;;19.40;14.48;;;3.10;99.90;;;;;;5104098;27;20398;-71
2023/12/02 12:39:07;;;;;;;18.83;14.82;;;3.20;99.90;;;;;;5101852;28;20040;-71